Time;durP1;ratioP1;P1;durP2;ratioP2;P2;SDS_P1;SDS_P2;PMS_P1;PMS_P2;Temp;Humidity;BMP_temperature;BMP_pressure;BME280_temperature;BME280_humidity;BME280_pressure;Samples;Min_cycle;Max_cycle;Signal;HPM_P1;HPM_P2
2023/09/27 00:00:10;;;;;;;;;;;;;;;16.96;60.86;100929.66;4947215;28;7213;-80
2023/09/27 00:02:41;;;;;;;;;;;;;;;16.91;60.51;100928.66;4941337;28;6987;-81
2023/09/27 00:05:07;;;;;;;;;;;;;;;16.84;61.07;100937.06;4937234;28;6994;-81
2023/09/27 00:07:37;;;;;;;;;;;;;;;16.76;61.03;100935.13;4968606;28;6872;-82
2023/09/27 00:10:11;;;;;;;;;;;;;;;16.70;61.12;100937.50;4957621;28;6820;-80
2023/09/27 00:12:37;;;;;;;;;;;;;;;16.67;61.29;100947.78;4965607;28;6820;-81
2023/09/27 00:15:04;;;;;;;;;;;;;;;16.62;61.59;100957.97;4954366;28;6988;-74
2023/09/27 00:17:30;;;;;;;;;;;;;;;16.58;61.25;100960.41;4943147;28;7058;-73
2023/09/27 00:19:56;;;;;;;;;;;;;;;16.54;61.97;100963.75;4951640;28;7177;-74
2023/09/27 00:22:22;;;;;;;;;;;;;;;16.50;62.10;100968.78;4953186;28;7180;-73
2023/09/27 00:24:48;;;;;;;;;;;;;;;16.48;61.49;100964.44;4945904;28;6953;-74
2023/09/27 00:27:15;;;;;;;;;;;;;;;16.44;61.71;100968.63;4952696;28;6982;-73
2023/09/27 00:29:41;;;;;;;;;;;;;;;16.42;61.38;100975.44;4951818;28;7115;-74
2023/09/27 00:32:06;;;;;;;;;;;;;;;16.38;61.12;100976.16;4967655;28;7202;-74
2023/09/27 00:34:32;;;;;;;;;;;;;;;16.34;61.52;100976.91;4955136;28;6924;-74
2023/09/27 00:36:57;;;;;;;;;;;;;;;16.32;61.26;100974.25;4950569;28;6803;-74
2023/09/27 00:39:24;;;;;;;;;;;;;;;16.29;61.43;100974.16;4952107;28;6804;-74
2023/09/27 00:41:49;;;;;;;;;;;;;;;16.27;61.59;100975.78;4949696;28;6812;-73
2023/09/27 00:44:15;;;;;;;;;;;;;;;16.24;61.55;100980.88;4953614;28;6816;-74
2023/09/27 00:46:40;;;;;;;;;;;;;;;16.22;61.63;100987.69;4935673;28;7008;-74
2023/09/27 00:49:08;;;;;;;;;;;;;;;16.18;61.21;100984.13;4953564;28;6864;-74
2023/09/27 00:51:34;;;;;;;;;;;;;;;16.16;61.66;100995.25;4934966;28;9408;-73
2023/09/27 00:54:00;;;;;;;;;;;;;;;16.12;61.38;100995.97;4954899;28;7274;-74
2023/09/27 00:56:27;;;;;;;;;;;;;;;16.10;61.34;100994.22;4948534;28;6943;-74
2023/09/27 00:58:54;;;;;;;;;;;;;;;16.07;61.50;100980.31;4946763;28;7114;-74
2023/09/27 01:01:19;;;;;;;;;;;;;;;16.04;61.98;100977.63;4949302;28;7207;-73
2023/09/27 01:03:46;;;;;;;;;;;;;;;16.05;62.21;100981.97;4940775;28;6934;-73
2023/09/27 01:06:12;;;;;;;;;;;;;;;16.03;62.18;100975.81;4950731;28;7178;-73
2023/09/27 01:08:37;;;;;;;;;;;;;;;16.00;62.11;100981.78;4962521;28;6801;-73
2023/09/27 01:11:04;;;;;;;;;;;;;;;15.97;62.35;100976.50;4942696;28;6986;-74
2023/09/27 01:13:30;;;;;;;;;;;;;;;15.93;62.29;100990.16;4959772;28;7453;-74
2023/09/27 01:15:56;;;;;;;;;;;;;;;15.88;61.60;100994.22;4965507;28;6788;-74
2023/09/27 01:18:21;;;;;;;;;;;;;;;15.83;61.46;100999.22;4957986;28;6907;-73
2023/09/27 01:20:47;;;;;;;;;;;;;;;15.80;61.98;101001.72;4959046;28;6792;-73
2023/09/27 01:23:12;;;;;;;;;;;;;;;15.78;62.50;100993.03;4957715;28;6947;-72
2023/09/27 01:25:39;;;;;;;;;;;;;;;15.77;62.63;100988.69;4969669;28;6952;-71
2023/09/27 01:28:09;;;;;;;;;;;;;;;15.75;62.73;100986.06;4945107;28;6982;-72
2023/09/27 01:30:36;;;;;;;;;;;;;;;15.74;62.38;100991.16;4959647;28;6998;-72
2023/09/27 01:33:10;;;;;;;;;;;;;;;15.71;62.16;100996.22;4929377;28;6934;-72
2023/09/27 01:35:35;;;;;;;;;;;;;;;15.68;63.00;100981.47;4927410;28;7075;-72
2023/09/27 01:38:01;;;;;;;;;;;;;;;15.68;63.08;100990.13;4942969;28;7384;-71
2023/09/27 01:40:30;;;;;;;;;;;;;;;15.68;62.60;100994.41;4940210;28;7158;-72
2023/09/27 01:42:55;;;;;;;;;;;;;;;15.66;62.17;100996.03;4957435;28;6980;-71
2023/09/27 01:45:22;;;;;;;;;;;;;;;15.62;62.47;101004.53;4941332;28;7203;-71
2023/09/27 01:47:48;;;;;;;;;;;;;;;15.57;62.60;101006.94;4948189;28;7516;-73
2023/09/27 01:50:14;;;;;;;;;;;;;;;15.53;62.50;101008.53;4930999;28;7092;-72
2023/09/27 01:52:41;;;;;;;;;;;;;;;15.52;62.08;101008.44;4955985;28;6840;-72
2023/09/27 01:55:08;;;;;;;;;;;;;;;15.47;62.70;101003.13;4942410;28;7430;-72
2023/09/27 01:57:33;;;;;;;;;;;;;;;15.45;62.17;101006.47;4960647;28;7578;-71
2023/09/27 01:59:58;;;;;;;;;;;;;;;15.42;62.96;100999.50;4956704;28;7230;-71
2023/09/27 02:02:24;;;;;;;;;;;;;;;15.40;62.77;100991.69;4939737;28;6796;-72
2023/09/27 02:04:50;;;;;;;;;;;;;;;15.39;62.53;100987.34;4960195;28;6791;-71
2023/09/27 02:07:15;;;;;;;;;;;;;;;15.38;62.97;100969.19;4939188;28;6949;-71
2023/09/27 02:09:41;;;;;;;;;;;;;;;15.39;62.80;100971.84;4939158;28;6799;-73
2023/09/27 02:12:06;;;;;;;;;;;;;;;15.39;63.60;100952.88;4955396;28;7194;-72
2023/09/27 02:14:32;;;;;;;;;;;;;;;15.41;63.50;100956.41;4955192;28;6870;-71
2023/09/27 02:16:57;;;;;;;;;;;;;;;15.43;63.57;100956.44;4956043;28;7252;-71
2023/09/27 02:19:23;;;;;;;;;;;;;;;15.44;63.44;100942.72;4942902;28;6861;-72
2023/09/27 02:21:48;;;;;;;;;;;;;;;15.44;63.43;100951.34;4939565;28;6953;-71
2023/09/27 02:24:15;;;;;;;;;;;;;;;15.45;63.39;100959.97;4946471;28;6939;-72
2023/09/27 02:26:40;;;;;;;;;;;;;;;15.45;63.17;100967.72;4924579;28;6997;-73
2023/09/27 02:29:07;;;;;;;;;;;;;;;15.47;63.32;100963.50;4926355;28;7324;-70
2023/09/27 02:31:32;;;;;;;;;;;;;;;15.43;62.97;100959.03;4947919;28;6876;-72
2023/09/27 02:33:58;;;;;;;;;;;;;;;15.40;63.50;100952.94;4940993;28;6820;-74
2023/09/27 02:36:23;;;;;;;;;;;;;;;15.39;62.92;100955.44;4945797;28;7089;-74
2023/09/27 02:38:49;;;;;;;;;;;;;;;15.36;63.17;100951.06;4934504;28;6900;-74
2023/09/27 02:41:14;;;;;;;;;;;;;;;15.35;62.69;100961.34;4938789;28;7232;-74
2023/09/27 02:43:40;;;;;;;;;;;;;;;15.30;62.97;100956.00;4943349;28;7013;-74
2023/09/27 02:46:06;;;;;;;;;;;;;;;15.29;63.11;100969.75;4938210;28;6957;-74
2023/09/27 02:48:32;;;;;;;;;;;;;;;15.25;62.66;100960.09;4955033;28;6788;-74
2023/09/27 02:50:57;;;;;;;;;;;;;;;15.21;63.27;100950.50;4936445;28;7373;-74
2023/09/27 02:53:23;;;;;;;;;;;;;;;15.23;63.06;100951.41;4953139;28;6900;-74
2023/09/27 02:55:48;;;;;;;;;;;;;;;15.19;63.01;100946.97;4946779;28;6788;-73
2023/09/27 02:58:15;;;;;;;;;;;;;;;15.18;63.47;100950.38;4921372;28;7813;-74
2023/09/27 03:00:41;;;;;;;;;;;;;;;15.17;63.13;100949.50;4935043;28;6828;-74
2023/09/27 03:03:07;;;;;;;;;;;;;;;15.14;62.53;100939.91;4943531;28;6962;-74
2023/09/27 03:05:35;;;;;;;;;;;;;;;15.12;62.54;100933.81;4935538;28;6797;-74
2023/09/27 03:08:02;;;;;;;;;;;;;;;15.08;62.75;100931.97;4934569;28;7337;-74
2023/09/27 03:10:28;;;;;;;;;;;;;;;15.13;63.06;100924.38;4931685;28;6951;-74
2023/09/27 03:12:54;;;;;;;;;;;;;;;15.20;63.48;100930.66;4936236;28;7196;-74
2023/09/27 03:15:20;;;;;;;;;;;;;;;15.26;64.40;100936.06;4938167;28;7220;-74
2023/09/27 03:17:47;;;;;;;;;;;;;;;15.31;63.52;100952.59;4935477;28;7108;-74
2023/09/27 03:20:19;;;;;;;;;;;;;;;15.36;63.34;100945.91;4935010;28;6939;-74
2023/09/27 03:22:48;;;;;;;;;;;;;;;15.38;63.39;100940.78;4943961;28;7300;-73
2023/09/27 03:25:16;;;;;;;;;;;;;;;15.37;63.51;100942.50;4934665;28;7422;-74
2023/09/27 03:27:42;;;;;;;;;;;;;;;15.38;62.96;100939.09;4937434;28;6816;-74
2023/09/27 03:30:07;;;;;;;;;;;;;;;15.37;62.84;100941.59;4954373;28;7301;-74
2023/09/27 03:32:33;;;;;;;;;;;;;;;15.35;62.88;100944.13;4926195;28;6963;-74
2023/09/27 03:34:59;;;;;;;;;;;;;;;15.32;62.55;100938.84;4928353;28;8085;-74
2023/09/27 03:37:24;;;;;;;;;;;;;;;15.30;62.52;100929.28;4947609;28;7186;-74
2023/09/27 03:39:52;;;;;;;;;;;;;;;15.28;62.60;100931.81;4950993;28;7263;-74
2023/09/27 03:42:22;;;;;;;;;;;;;;;15.25;63.21;100936.84;4934910;28;7030;-73
2023/09/27 03:44:48;;;;;;;;;;;;;;;15.24;62.69;100945.44;4930225;28;7029;-75
2023/09/27 03:47:15;;;;;;;;;;;;;;;15.21;63.02;100935.00;4922257;28;7803;-74
2023/09/27 03:49:41;;;;;;;;;;;;;;;15.17;62.91;100934.00;4938914;28;6816;-74
2023/09/27 03:52:07;;;;;;;;;;;;;;;15.17;63.21;100933.13;4936142;28;6788;-73
2023/09/27 03:54:32;;;;;;;;;;;;;;;15.14;63.54;100934.75;4920837;28;7180;-74
2023/09/27 03:56:58;;;;;;;;;;;;;;;15.18;63.14;100947.81;4935026;28;6803;-74
2023/09/27 03:59:24;;;;;;;;;;;;;;;15.18;63.30;100958.13;4936146;28;7216;-74
2023/09/27 04:01:49;;;;;;;;;;;;;;;15.16;62.88;100962.31;4944064;28;6957;-74
2023/09/27 04:04:15;;;;;;;;;;;;;;;15.16;63.07;100968.38;4922441;28;7104;-74
2023/09/27 04:06:41;;;;;;;;;;;;;;;15.17;63.59;100964.13;4934378;28;7118;-73
2023/09/27 04:09:08;;;;;;;;;;;;;;;15.19;63.65;100962.47;4952853;28;7307;-74
2023/09/27 04:11:34;;;;;;;;;;;;;;;15.22;63.74;100963.47;4938589;28;7035;-73
2023/09/27 04:14:00;;;;;;;;;;;;;;;15.26;63.78;100975.66;4954245;28;6984;-74
2023/09/27 04:16:28;;;;;;;;;;;;;;;15.26;63.31;100973.06;4945046;28;7216;-74
2023/09/27 04:18:54;;;;;;;;;;;;;;;15.26;62.79;100964.47;4940718;28;7467;-74
2023/09/27 04:21:19;;;;;;;;;;;;;;;15.23;62.95;100954.91;4945330;28;6813;-74
2023/09/27 04:23:54;;;;;;;;;;;;;;;15.20;62.40;100953.91;4937240;28;6796;-74
2023/09/27 04:26:20;;;;;;;;;;;;;;;15.18;63.01;100947.81;4962046;28;6820;-74
2023/09/27 04:28:45;;;;;;;;;;;;;;;15.17;62.82;100940.88;4948764;28;7154;-74
2023/09/27 04:31:11;;;;;;;;;;;;;;;15.14;63.12;100945.09;4936377;28;7087;-74
2023/09/27 04:33:36;;;;;;;;;;;;;;;15.12;63.21;100936.41;4938663;28;6883;-75
2023/09/27 04:36:02;;;;;;;;;;;;;;;15.11;62.96;100931.16;4956551;28;6981;-74
2023/09/27 04:38:27;;;;;;;;;;;;;;;15.10;63.01;100938.06;4953664;28;6940;-74
2023/09/27 04:40:53;;;;;;;;;;;;;;;15.13;63.28;100937.31;4952171;28;7025;-74
2023/09/27 04:43:18;;;;;;;;;;;;;;;15.18;63.66;100935.75;4936730;28;6800;-74
2023/09/27 04:45:44;;;;;;;;;;;;;;;15.28;64.68;100932.69;4934908;28;6808;-74
2023/09/27 04:48:09;;;;;;;;;;;;;;;15.39;64.75;100938.25;4931397;28;6788;-74
2023/09/27 04:50:35;;;;;;;;;;;;;;;15.54;64.62;100945.69;4934994;28;7000;-74
2023/09/27 04:53:00;;;;;;;;;;;;;;;15.65;64.46;100940.03;4951447;28;6788;-74
2023/09/27 04:55:26;;;;;;;;;;;;;;;15.73;64.64;100945.47;4934351;28;7978;-74
2023/09/27 04:57:52;;;;;;;;;;;;;;;15.78;64.17;100941.34;4950099;28;7305;-74
2023/09/27 05:00:21;;;;;;;;;;;;;;;15.83;64.20;100951.03;4936882;28;7212;-74
2023/09/27 05:02:50;;;;;;;;;;;;;;;15.87;64.15;100949.44;4940407;28;7321;-74
2023/09/27 05:05:16;;;;;;;;;;;;;;;15.90;63.21;100948.66;4960927;28;6819;-81
2023/09/27 05:07:41;;;;;;;;;;;;;;;15.90;63.20;100939.22;4950034;28;6893;-81
2023/09/27 05:10:07;;;;;;;;;;;;;;;15.90;63.13;100944.38;4945833;28;6804;-80
2023/09/27 05:12:33;;;;;;;;;;;;;;;15.89;63.16;100946.91;4939983;28;7073;-76
2023/09/27 05:14:58;;;;;;;;;;;;;;;15.86;62.80;100947.69;4948559;28;6971;-72
2023/09/27 05:17:24;;;;;;;;;;;;;;;15.86;63.34;100942.50;4938763;28;6931;-71
2023/09/27 05:19:50;;;;;;;;;;;;;;;15.87;63.65;100958.88;4937330;28;6783;-73
2023/09/27 05:22:19;;;;;;;;;;;;;;;15.87;62.85;100956.28;4955237;28;6974;-72
2023/09/27 05:24:45;;;;;;;;;;;;;;;15.87;62.94;100954.59;4940536;28;6992;-73
2023/09/27 05:27:10;;;;;;;;;;;;;;;15.89;63.30;100957.25;4950776;28;7054;-72
2023/09/27 05:29:36;;;;;;;;;;;;;;;15.90;63.24;100954.72;4933367;28;6985;-72
2023/09/27 05:32:02;;;;;;;;;;;;;;;15.95;63.49;100963.53;4937406;28;7270;-71
2023/09/27 05:34:29;;;;;;;;;;;;;;;15.99;63.46;100958.47;4939820;28;6903;-72
2023/09/27 05:36:55;;;;;;;;;;;;;;;16.03;63.39;100963.78;4940504;28;7032;-72
2023/09/27 05:39:20;;;;;;;;;;;;;;;16.04;63.48;100978.47;4941311;28;6847;-73
2023/09/27 05:41:46;;;;;;;;;;;;;;;16.09;63.52;100976.06;5004756;23;6784;-72
2023/09/27 05:44:11;;;;;;;;;;;;;;;16.12;63.38;100959.78;4947561;28;7047;-74
2023/09/27 05:46:39;;;;;;;;;;;;;;;16.16;63.94;100947.00;4955807;28;7075;-72
2023/09/27 05:49:08;;;;;;;;;;;;;;;16.20;63.18;100941.09;4958857;28;7032;-72
2023/09/27 05:51:34;;;;;;;;;;;;;;;16.26;63.57;100945.59;4959177;28;6800;-73
2023/09/27 05:53:59;;;;;;;;;;;;;;;16.32;63.86;100952.66;4958698;28;6951;-74
2023/09/27 05:56:25;;;;;;;;;;;;;;;16.36;64.13;100944.19;4956109;28;6950;-73
2023/09/27 05:58:51;;;;;;;;;;;;;;;16.44;63.82;100958.28;4958042;28;6846;-73
2023/09/27 06:01:19;;;;;;;;;;;;;;;16.51;64.13;100970.59;4940227;28;6983;-73
2023/09/27 06:03:47;;;;;;;;;;;;;;;16.56;63.69;100975.88;4956948;28;7343;-72
2023/09/27 06:06:13;;;;;;;;;;;;;;;16.61;63.69;100976.03;4953674;28;7005;-72
2023/09/27 06:08:39;;;;;;;;;;;;;;;16.61;63.63;100970.84;4947037;28;6796;-74
2023/09/27 06:11:04;;;;;;;;;;;;;;;16.61;63.42;100966.56;4954711;28;7032;-73
2023/09/27 06:13:30;;;;;;;;;;;;;;;16.62;63.31;100957.97;4940616;28;6956;-73
2023/09/27 06:15:58;;;;;;;;;;;;;;;16.60;62.77;100957.06;4948218;28;6840;-73
2023/09/27 06:18:24;;;;;;;;;;;;;;;16.58;62.85;100955.22;4963861;28;6804;-74
2023/09/27 06:20:50;;;;;;;;;;;;;;;16.57;63.12;100969.00;4950681;28;6896;-73
2023/09/27 06:23:16;;;;;;;;;;;;;;;16.54;63.04;100964.59;4959058;28;6985;-73
2023/09/27 06:25:46;;;;;;;;;;;;;;;16.55;63.14;100968.94;4953516;28;6857;-72
2023/09/27 06:28:13;;;;;;;;;;;;;;;16.54;63.32;100974.09;4964759;28;6812;-72
2023/09/27 06:30:42;;;;;;;;;;;;;;;16.56;63.08;100967.25;4946495;28;7085;-72
2023/09/27 06:33:09;;;;;;;;;;;;;;;16.59;63.34;100964.75;4956609;28;7389;-74
2023/09/27 06:35:36;;;;;;;;;;;;;;;16.64;63.61;100952.84;4960372;28;7263;-74
2023/09/27 06:38:02;;;;;;;;;;;;;;;16.72;64.00;100953.97;4952760;28;7239;-74
2023/09/27 06:40:29;;;;;;;;;;;;;;;16.80;63.90;100952.53;4933852;28;7249;-74
2023/09/27 06:42:55;;;;;;;;;;;;;;;16.92;64.25;100964.09;4938075;28;7242;-74
2023/09/27 06:45:21;;;;;;;;;;;;;;;17.02;64.27;100958.38;4944200;28;6961;-74
2023/09/27 06:47:46;;;;;;;;;;;;;;;17.13;64.27;100948.31;4940419;28;6937;-74
2023/09/27 06:50:13;;;;;;;;;;;;;;;17.25;64.01;100939.19;4939191;28;7678;-74
2023/09/27 06:52:40;;;;;;;;;;;;;;;17.32;63.86;100947.16;4945029;28;6812;-73
2023/09/27 06:55:13;;;;;;;;;;;;;;;17.40;64.02;100954.28;4940699;28;8438;-74
2023/09/27 06:57:44;;;;;;;;;;;;;;;17.47;63.95;100961.38;4959727;28;6999;-73
2023/09/27 07:00:12;;;;;;;;;;;;;;;17.57;63.97;100957.34;4938125;28;6990;-73
2023/09/27 07:02:41;;;;;;;;;;;;;;;17.69;64.21;100967.19;4941164;28;7242;-74
2023/09/27 07:05:08;;;;;;;;;;;;;;;17.79;64.08;100969.22;4944878;28;6926;-73
2023/09/27 07:07:34;;;;;;;;;;;;;;;17.90;63.43;100965.19;4957802;28;6845;-74
2023/09/27 07:09:59;;;;;;;;;;;;;;;18.04;63.64;100965.59;4941818;28;6985;-74
2023/09/27 07:12:25;;;;;;;;;;;;;;;18.17;63.56;100961.59;4935933;28;7503;-74
2023/09/27 07:14:51;;;;;;;;;;;;;;;18.32;63.45;100961.09;4936036;28;7485;-74
2023/09/27 07:17:17;;;;;;;;;;;;;;;18.45;63.30;100956.22;4933884;28;7529;-74
2023/09/27 07:19:43;;;;;;;;;;;;;;;18.61;63.37;100967.84;4921229;28;7029;-74
2023/09/27 07:22:10;;;;;;;;;;;;;;;18.76;63.11;100964.72;4940535;28;6877;-74
2023/09/27 07:24:36;;;;;;;;;;;;;;;18.92;63.80;100958.16;4936600;28;7005;-73
2023/09/27 07:27:02;;;;;;;;;;;;;;;19.06;63.42;100945.50;4958385;28;6931;-74
2023/09/27 07:29:27;;;;;;;;;;;;;;;19.22;63.42;100936.34;4942738;28;6794;-73
2023/09/27 07:31:53;;;;;;;;;;;;;;;19.37;62.98;100934.88;4954777;28;6904;-74
2023/09/27 07:34:20;;;;;;;;;;;;;;;19.50;62.77;100934.28;4933085;28;6968;-73
2023/09/27 07:36:45;;;;;;;;;;;;;;;19.65;62.25;100927.63;4955741;28;6974;-73
2023/09/27 07:39:13;;;;;;;;;;;;;;;19.79;62.25;100918.34;4958116;28;6784;-74
2023/09/27 07:41:38;;;;;;;;;;;;;;;19.94;62.55;100928.22;4936409;28;6984;-73
2023/09/27 07:44:07;;;;;;;;;;;;;;;20.08;62.09;100936.22;4945370;28;7036;-72
2023/09/27 07:46:33;;;;;;;;;;;;;;;20.25;61.76;100940.84;4946265;28;6991;-72
2023/09/27 07:48:59;;;;;;;;;;;;;;;20.42;61.97;100935.91;4963192;28;7313;-73
2023/09/27 07:51:24;;;;;;;;;;;;;;;20.64;61.47;100936.25;5025336;23;8251;-72
2023/09/27 07:53:50;;;;;;;;;;;;;;;20.83;61.13;100937.44;4974986;28;7486;-73
2023/09/27 07:56:23;;;;;;;;;;;;;;;21.03;60.63;100939.44;4974926;28;6850;-72
2023/09/27 07:58:51;;;;;;;;;;;;;;;21.19;60.33;100936.19;4974529;28;7223;-71
2023/09/27 08:01:20;;;;;;;;;;;;;;;21.30;59.83;100920.69;4966397;28;7003;-73
2023/09/27 08:03:51;;;;;;;;;;;;;;;21.35;59.62;100913.78;4992100;28;7392;-72
2023/09/27 08:06:18;;;;;;;;;;;;;;;21.37;59.73;100905.97;4975292;28;7297;-72
2023/09/27 08:08:43;;;;;;;;;;;;;;;21.38;59.39;100889.47;4958427;28;7304;-72
2023/09/27 08:11:13;;;;;;;;;;;;;;;21.40;58.90;100876.47;4984813;28;6841;-72
2023/09/27 08:13:39;;;;;;;;;;;;;;;21.39;58.90;100869.47;4977704;28;7011;-72
2023/09/27 08:16:07;;;;;;;;;;;;;;;21.36;58.44;100872.94;4972797;28;7015;-72
2023/09/27 08:18:33;;;;;;;;;;;;;;;21.32;58.65;100869.44;4960429;28;7264;-73
2023/09/27 08:21:00;;;;;;;;;;;;;;;21.32;58.57;100859.00;4961659;28;7262;-71
2023/09/27 08:23:25;;;;;;;;;;;;;;;21.36;58.65;100860.78;4973599;28;7324;-72
2023/09/27 08:25:52;;;;;;;;;;;;;;;21.44;58.57;100857.38;4975584;28;6840;-72
2023/09/27 08:28:18;;;;;;;;;;;;;;;21.55;58.84;100874.00;4966508;28;6929;-72
2023/09/27 08:30:43;;;;;;;;;;;;;;;21.68;58.54;100885.47;4973731;28;6771;-72
2023/09/27 08:33:09;;;;;;;;;;;;;;;21.80;58.27;100892.53;4983053;28;6972;-73
2023/09/27 08:35:34;;;;;;;;;;;;;;;21.96;58.17;100909.22;4973798;28;6788;-72
2023/09/27 08:38:00;;;;;;;;;;;;;;;22.04;57.74;100899.72;4974887;28;7242;-72
2023/09/27 08:40:25;;;;;;;;;;;;;;;22.15;57.39;100894.56;4991222;28;6779;-71
2023/09/27 08:42:56;;;;;;;;;;;;;;;22.20;57.04;100889.38;4960850;28;6947;-71
2023/09/27 08:45:22;;;;;;;;;;;;;;;22.23;56.86;100876.38;4974013;28;7010;-72
2023/09/27 08:47:48;;;;;;;;;;;;;;;22.25;56.55;100889.41;4972366;28;6825;-73
2023/09/27 08:50:14;;;;;;;;;;;;;;;22.26;56.93;100889.44;4979564;28;6852;-71
2023/09/27 08:52:46;;;;;;;;;;;;;;;22.29;56.73;100881.63;4974796;28;7293;-71
2023/09/27 08:55:12;;;;;;;;;;;;;;;22.32;57.29;100886.88;4983753;28;6807;-74
2023/09/27 08:57:44;;;;;;;;;;;;;;;22.34;56.73;100890.38;4972460;28;7031;-74
2023/09/27 09:00:13;;;;;;;;;;;;;;;22.34;56.61;100892.09;4976093;28;6795;-74
2023/09/27 09:02:43;;;;;;;;;;;;;;;22.30;56.29;100896.41;4973545;28;11656;-74
2023/09/27 09:05:11;;;;;;;;;;;;;;;22.30;56.34;100888.56;4971437;28;6973;-74
2023/09/27 09:07:40;;;;;;;;;;;;;;;22.34;56.73;100892.09;4974271;28;6971;-74
2023/09/27 09:10:09;;;;;;;;;;;;;;;22.41;56.66;100885.19;4961752;28;7423;-74
2023/09/27 09:12:38;;;;;;;;;;;;;;;22.53;56.97;100876.56;4980016;28;6980;-74
2023/09/27 09:15:05;;;;;;;;;;;;;;;22.66;56.67;100869.69;4978260;28;6987;-74
2023/09/27 09:17:36;;;;;;;;;;;;;;;22.75;56.63;100857.56;4975516;28;6815;-74
2023/09/27 09:23:12;;;;;;;;;;;;;;;22.82;56.34;100860.19;4924329;28;6831;-74
2023/09/27 09:25:43;;;;;;;;;;;;;;;22.85;56.20;100861.06;4979086;28;8271;-74
2023/09/27 09:28:09;;;;;;;;;;;;;;;22.86;55.75;100868.03;4960163;28;7233;-74
2023/09/27 09:30:36;;;;;;;;;;;;;;;22.91;55.57;100861.97;4970295;28;6968;-74
2023/09/27 09:33:03;;;;;;;;;;;;;;;22.98;55.83;100866.34;4968377;28;7325;-74
2023/09/27 09:35:32;;;;;;;;;;;;;;;23.07;55.91;100871.59;4971191;28;7028;-74
2023/09/27 09:38:02;;;;;;;;;;;;;;;23.16;55.40;100871.63;4994387;28;6962;-74
2023/09/27 09:40:28;;;;;;;;;;;;;;;23.27;55.23;100878.63;4976797;28;7044;-74
2023/09/27 09:42:57;;;;;;;;;;;;;;;23.38;55.38;100877.00;4975955;28;7261;-74
2023/09/27 09:45:23;;;;;;;;;;;;;;;23.52;55.32;100868.28;4961712;28;7010;-75
2023/09/27 09:47:49;;;;;;;;;;;;;;;23.64;55.23;100867.44;4983894;28;7251;-74
2023/09/27 09:50:18;;;;;;;;;;;;;;;23.77;55.30;100869.19;4975777;28;6954;-74
2023/09/27 09:52:57;;;;;;;;;;;;;;;23.91;54.23;100870.94;4968905;28;7145;-74
2023/09/27 09:55:29;;;;;;;;;;;;;;;24.05;54.43;100868.38;4956324;28;7228;-74
2023/09/27 09:58:00;;;;;;;;;;;;;;;24.21;54.02;100870.06;4972146;28;7342;-74
2023/09/27 10:00:27;;;;;;;;;;;;;;;24.39;54.19;100870.91;4973152;28;6985;-74
2023/09/27 10:03:09;;;;;;;;;;;;;;;24.61;54.01;100871.75;4960110;28;7004;-74
2023/09/27 10:05:39;;;;;;;;;;;;;;;24.81;53.37;100858.59;4981611;28;7064;-74
2023/09/27 10:08:08;;;;;;;;;;;;;;;25.05;52.94;100851.50;4975470;28;7361;-74
2023/09/27 10:10:35;;;;;;;;;;;;;;;25.38;52.75;100852.19;4976201;28;7257;-74
2023/09/27 10:13:04;;;;;;;;;;;;;;;25.97;52.01;100844.78;4990107;28;6804;-74
2023/09/27 10:15:33;;;;;;;;;;;;;;;26.73;51.01;100836.13;4973613;28;7222;-74
2023/09/27 10:18:23;;;;;;;;;;;;;;;27.48;49.04;100845.66;4977879;28;6819;-74
2023/09/27 10:21:01;;;;;;;;;;;;;;;27.86;48.11;100850.31;4992256;28;7003;-74
2023/09/27 10:23:26;;;;;;;;;;;;;;;27.98;46.86;100846.59;4985639;28;7658;-74
2023/09/27 10:25:52;;;;;;;;;;;;;;;28.05;46.56;100847.38;4975042;28;6819;-74
2023/09/27 10:28:17;;;;;;;;;;;;;;;28.34;46.39;100848.63;4992004;28;6775;-74
2023/09/27 10:30:48;;;;;;;;;;;;;;;28.90;45.96;100849.28;4973916;28;6825;-74
2023/09/27 10:33:22;;;;;;;;;;;;;;;29.42;45.00;100841.13;4994036;28;7159;-74
2023/09/27 10:36:11;;;;;;;;;;;;;;;30.19;44.07;100828.63;4993116;28;6904;-75
2023/09/27 10:38:42;;;;;;;;;;;;;;;31.03;42.88;100820.06;4988071;28;7350;-74
2023/09/27 10:41:08;;;;;;;;;;;;;;;31.89;42.13;100810.28;4977967;28;6969;-75
2023/09/27 10:43:34;;;;;;;;;;;;;;;32.85;40.30;100807.69;4972089;28;7029;-75
2023/09/27 10:45:59;;;;;;;;;;;;;;;33.86;39.17;100809.78;4972214;28;6987;-75
2023/09/27 10:48:25;;;;;;;;;;;;;;;34.41;37.96;100802.06;4982846;28;8227;-75
2023/09/27 10:50:56;;;;;;;;;;;;;;;34.43;36.55;100798.41;4977137;28;6914;-75
2023/09/27 10:53:22;;;;;;;;;;;;;;;34.15;36.11;100798.81;4977024;28;7106;-75
2023/09/27 10:55:48;;;;;;;;;;;;;;;33.60;36.76;100802.94;4963259;28;7238;-75
2023/09/27 10:58:15;;;;;;;;;;;;;;;33.00;36.68;100807.09;4976143;28;6788;-74
2023/09/27 11:00:51;;;;;;;;;;;;;;;32.55;37.33;100795.53;4974918;28;6811;-74
2023/09/27 11:03:17;;;;;;;;;;;;;;;32.31;37.50;100798.19;4988744;28;6962;-74
2023/09/27 11:05:43;;;;;;;;;;;;;;;32.27;37.29;100793.88;4990600;28;7061;-75
2023/09/27 11:08:08;;;;;;;;;;;;;;;32.24;37.34;100772.81;4972260;28;7070;-75
2023/09/27 11:10:34;;;;;;;;;;;;;;;32.41;37.37;100773.06;4993195;28;6950;-75
2023/09/27 11:13:19;;;;;;;;;;;;;;;32.91;36.52;100770.28;4974448;28;7064;-74
2023/09/27 11:15:45;;;;;;;;;;;;;;;33.10;36.10;100776.59;5001745;28;6799;-75
2023/09/27 11:18:11;;;;;;;;;;;;;;;33.04;35.57;100782.16;5005969;28;7286;-78
2023/09/27 11:20:37;;;;;;;;;;;;;;;33.17;35.73;100784.31;4997341;28;6903;-78
2023/09/27 11:23:04;;;;;;;;;;;;;;;33.66;34.92;100773.44;4998502;28;7582;-79
2023/09/27 11:25:31;;;;;;;;;;;;;;;34.24;34.52;100762.97;4997329;28;7295;-77
2023/09/27 11:27:57;;;;;;;;;;;;;;;34.89;33.37;100750.13;5004004;28;7031;-75
2023/09/27 11:30:32;;;;;;;;;;;;;;;35.57;32.81;100756.59;4994502;28;7421;-80
2023/09/27 11:33:01;;;;;;;;;;;;;;;35.94;32.26;100747.59;4978114;28;7711;-78
2023/09/27 11:35:27;;;;;;;;;;;;;;;36.07;31.96;100738.00;4973839;28;7006;-82
2023/09/27 11:38:10;;;;;;;;;;;;;;;36.22;31.77;100740.78;4981446;28;6776;-81
2023/09/27 11:40:42;;;;;;;;;;;;;;;36.33;31.54;100738.38;4975106;28;6881;-84
2023/09/27 11:43:08;;;;;;;;;;;;;;;36.54;31.15;100746.97;4982402;28;6995;-81
2023/09/27 11:45:44;;;;;;;;;;;;;;;36.69;30.36;100739.94;4967352;28;7236;-83
2023/09/27 11:48:10;;;;;;;;;;;;;;;36.95;30.45;100740.25;4980620;28;7333;-77
2023/09/27 11:50:35;;;;;;;;;;;;;;;37.34;30.30;100734.47;4975807;28;6784;-84
2023/09/27 11:53:01;;;;;;;;;;;;;;;37.44;29.64;100740.97;4965143;28;7335;-84
2023/09/27 11:55:26;;;;;;;;;;;;;;;37.17;29.78;100738.16;4980640;28;6800;-78
2023/09/27 11:57:57;;;;;;;;;;;;;;;36.59;29.38;100738.75;4968518;28;6840;-77
2023/09/27 12:00:23;;;;;;;;;;;;;;;36.03;29.83;100723.09;4996668;28;7271;-81
2023/09/27 12:02:48;;;;;;;;;;;;;;;35.62;31.02;100731.50;4982382;28;6852;-81
2023/09/27 12:05:15;;;;;;;;;;;;;;;35.25;31.38;100728.91;4968902;28;7287;-79
2023/09/27 12:07:41;;;;;;;;;;;;;;;34.81;31.36;100727.50;4984965;28;6788;-83
2023/09/27 12:10:07;;;;;;;;;;;;;;;34.13;31.56;100723.56;4966716;28;7259;-81
2023/09/27 12:12:33;;;;;;;;;;;;;;;33.38;32.16;100727.63;4976091;28;7537;-81
2023/09/27 12:15:00;;;;;;;;;;;;;;;33.19;32.85;100726.69;4979560;28;6792;-75
2023/09/27 12:17:26;;;;;;;;;;;;;;;33.29;32.81;100714.75;4987432;28;6823;-78
2023/09/27 12:19:53;;;;;;;;;;;;;;;33.25;33.31;100708.72;4982721;28;6984;-83
2023/09/27 12:22:19;;;;;;;;;;;;;;;33.02;32.70;100708.81;4981456;28;6816;-81
2023/09/27 12:24:45;;;;;;;;;;;;;;;32.74;33.49;100710.81;4980430;28;7184;-75
2023/09/27 12:27:11;;;;;;;;;;;;;;;32.51;34.26;100712.56;4997825;28;6803;-82
2023/09/27 12:29:37;;;;;;;;;;;;;;;32.22;34.11;100709.22;4994572;28;6999;-84
2023/09/27 12:32:03;;;;;;;;;;;;;;;31.89;34.57;100701.63;4980121;28;6876;-84
2023/09/27 12:34:29;;;;;;;;;;;;;;;31.62;34.54;100706.97;4978164;28;6811;-79
2023/09/27 12:36:55;;;;;;;;;;;;;;;31.38;34.88;100706.88;4989579;28;6959;-80
2023/09/27 12:39:21;;;;;;;;;;;;;;;31.27;34.89;100701.09;4997761;28;6800;-81
2023/09/27 12:41:46;;;;;;;;;;;;;;;31.24;35.34;100698.56;4967727;28;7393;-81
2023/09/27 12:44:12;;;;;;;;;;;;;;;31.20;35.30;100691.63;4966841;28;6840;-80
2023/09/27 12:46:37;;;;;;;;;;;;;;;31.10;35.16;100691.94;5004500;28;6856;-81
2023/09/27 12:49:03;;;;;;;;;;;;;;;30.98;35.59;100685.28;4985578;28;6989;-82